CYVK1: Verdigris River, Coyville, KS

Data processed at Thu May 23 2019 23:50


All information presented herein is the property of the government of the United States of America and may be revised or deleted at any time without prior notice.
Dissemination of this information without the expressed written consent of the Public Affairs Office, Tulsa District U.S. Army Corps of Engineers is strictly prohibited.
These data are gathered electronically and, as presented, have not undergone any form of quality control. These data are not guaranteed to be valid or correct.
Go to home page.
Go to station list.
Go to home page.

Upstream stations:

Downstream station:
Previous Day
Next Day
Current Day
    
SHEF ID:       CYVK1     VERDIGRIS R NR COYVILLE, KS
STATION TYPE:  
Regulating: Stage =    26.00, Flow =     7720

               PRECIP     STAGE  RIV-FLOW   VOLTAGE  BAT-LOAD
                   in        ft       cfs      volt      volt
              Ccp-Rev   Ccp-Rev   Ccp-Rev   Ccp-Rev   Ccp-Rev
(US/Central)
05/23 00:00      0.02     33.72     11700     12.81     12.73
05/23 01:00      0.03     33.37     11500     12.73     12.73
05/23 02:00      0.13     33.12     11400     12.73     12.65
05/23 03:00      0.00     32.84     11200     12.73     12.65
05/23 04:00      0.01     32.57     11100     12.73     12.65
05/23 05:00      0.00     32.37     11000     12.73     12.65
05/23 06:00      0.00     32.15     10900     12.73     12.65
05/23 07:00      0.00     31.98     10800     12.65     12.65
05/23 08:00      0.01     31.82     10700     12.65     12.65
05/23 09:00      0.00     31.69     10600     12.73     12.65
05/23 10:00      0.02     31.54     10500     12.89     12.73
05/23 11:00      0.00     31.43     10500     13.05     12.89
05/23 12:00      0.01     31.32     10400     13.37     13.29
05/23 13:00      0.00     31.23     10400     13.29     13.21
05/23 14:00      0.00     30.74     10100     13.68     13.29
05/23 15:00      0.00     29.91      9670     13.76     13.60
05/23 16:00      0.00     29.12      9260     13.60     13.60
05/23 17:00      0.00     28.54      8970     13.44     13.37
05/23 18:00      0.00     28.00      8700     14.32     13.37
05/23 19:00      0.00     27.56      8480     13.53     13.37
05/23 20:00      0.00     27.19      8300     13.05     13.13
05/23 21:00      0.00     26.81      8110     12.89     12.81
05/23 22:00      0.00     26.55      7990     12.81     12.73
05/23 23:00      0.00     26.24      7840     12.81     12.73